createdAt,value
2017-07-26T00:00:13.064Z,0
2017-07-26T00:01:13.356Z,0
2017-07-26T00:02:12.852Z,0
2017-07-26T00:03:13.352Z,0
2017-07-26T00:04:13.037Z,0
2017-07-26T00:05:13.448Z,0
2017-07-26T00:06:13.339Z,0
2017-07-26T00:07:13.342Z,0
2017-07-26T00:08:13.173Z,0
2017-07-26T00:09:13.431Z,0
2017-07-26T00:10:13.420Z,0
2017-07-26T00:11:13.105Z,0
2017-07-26T00:12:13.312Z,0
2017-07-26T00:13:13.016Z,0
2017-07-26T00:14:13.313Z,0
2017-07-26T00:15:13.357Z,0
2017-07-26T00:16:13.400Z,0
2017-07-26T00:17:13.092Z,0
2017-07-26T00:18:13.289Z,0
2017-07-26T00:19:12.678Z,0
2017-07-26T00:20:12.460Z,0
2017-07-26T00:21:13.375Z,0
2017-07-26T00:22:12.664Z,0
2017-07-26T00:23:13.266Z,0
2017-07-26T00:24:12.752Z,0
2017-07-26T00:25:13.256Z,0
2017-07-26T00:26:13.052Z,0
2017-07-26T00:27:13.359Z,0
2017-07-26T00:28:13.241Z,0
2017-07-26T00:29:13.036Z,0
2017-07-26T00:30:12.941Z,0
2017-07-26T00:31:13.241Z,0
2017-07-26T00:32:12.626Z,0
2017-07-26T00:33:13.224Z,0
2017-07-26T00:34:13.216Z,0
2017-07-26T00:35:13.229Z,0
2017-07-26T00:36:12.906Z,0
2017-07-26T00:37:12.904Z,0
2017-07-26T00:38:13.304Z,0
2017-07-26T00:39:12.692Z,0
2017-07-26T00:40:12.887Z,0
2017-07-26T00:41:13.205Z,0
2017-07-26T00:42:13.189Z,0
2017-07-26T00:43:12.881Z,0
2017-07-26T00:44:12.868Z,0
2017-07-26T00:45:12.868Z,0
2017-07-26T00:46:13.172Z,0
2017-07-26T00:47:12.865Z,0
2017-07-26T00:48:13.168Z,0
2017-07-26T00:49:13.158Z,0
2017-07-26T00:50:12.858Z,0
2017-07-26T00:51:12.941Z,0
2017-07-26T00:52:12.835Z,0
2017-07-26T00:53:13.167Z,0
2017-07-26T00:54:13.135Z,0
2017-07-26T00:55:12.521Z,0
2017-07-26T00:56:13.283Z,0
2017-07-26T00:57:13.127Z,0
2017-07-26T00:58:13.115Z,0
2017-07-26T00:59:13.110Z,0
2017-07-26T01:00:12.814Z,0
2017-07-26T01:01:12.793Z,0
2017-07-26T01:02:13.203Z,0
2017-07-26T01:03:12.891Z,0
2017-07-26T01:04:13.094Z,0
2017-07-26T01:05:12.886Z,0
2017-07-26T01:06:12.781Z,0
2017-07-26T01:07:13.176Z,0
2017-07-26T01:08:12.770Z,0
2017-07-26T01:09:12.763Z,0
2017-07-26T01:10:13.058Z,0
2017-07-26T01:11:12.908Z,0
2017-07-26T01:12:12.448Z,0
2017-07-26T01:13:13.040Z,0
2017-07-26T01:14:12.746Z,0
2017-07-26T01:15:13.043Z,0
2017-07-26T01:16:12.734Z,0
2017-07-26T01:17:13.039Z,0
2017-07-26T01:18:13.056Z,0
2017-07-26T01:19:13.022Z,0
2017-07-26T01:20:12.410Z,0
2017-07-26T01:21:12.404Z,0
2017-07-26T01:22:13.015Z,0
2017-07-26T01:23:13.010Z,0
2017-07-26T01:24:13.021Z,0
2017-07-26T01:25:13.001Z,0
2017-07-26T01:26:12.996Z,0
2017-07-26T01:27:12.689Z,0
2017-07-26T01:28:12.783Z,0
2017-07-26T01:29:13.095Z,0
2017-07-26T01:30:12.667Z,0
2017-07-26T01:31:13.180Z,0
2017-07-26T01:32:12.973Z,0
2017-07-26T01:33:12.969Z,0
2017-07-26T01:34:13.108Z,0
2017-07-26T01:35:12.656Z,0
2017-07-26T01:36:12.965Z,0
2017-07-26T01:37:12.654Z,0
2017-07-26T01:38:12.947Z,0
2017-07-26T01:39:12.633Z,0
2017-07-26T01:40:12.639Z,0
2017-07-26T01:41:12.932Z,0
2017-07-26T01:42:12.921Z,0
2017-07-26T01:43:12.924Z,0
2017-07-26T01:44:12.759Z,0
2017-07-26T01:45:12.612Z,0
2017-07-26T01:46:12.906Z,0
2017-07-26T01:47:13.065Z,0
2017-07-26T01:48:12.904Z,0
2017-07-26T01:49:12.900Z,0
2017-07-26T01:50:12.889Z,0
2017-07-26T01:51:12.578Z,0
2017-07-26T01:52:12.581Z,0
2017-07-26T01:53:12.883Z,0
2017-07-26T01:54:12.973Z,0
2017-07-26T01:55:12.571Z,0
2017-07-26T01:56:12.257Z,0
2017-07-26T01:57:12.249Z,0
2017-07-26T01:58:12.950Z,0
2017-07-26T01:59:13.054Z,0
2017-07-26T02:00:12.856Z,0
2017-07-26T02:01:12.845Z,0
2017-07-26T02:02:12.842Z,0
2017-07-26T02:03:12.534Z,0
2017-07-26T02:04:12.832Z,0
2017-07-26T02:05:12.522Z,0
2017-07-26T02:06:12.820Z,0
2017-07-26T02:07:12.823Z,0
2017-07-26T02:08:12.813Z,0
2017-07-26T02:09:12.812Z,0
2017-07-26T02:10:12.955Z,0
2017-07-26T02:11:12.801Z,0
2017-07-26T02:12:12.893Z,0
2017-07-26T02:13:12.800Z,0
2017-07-26T02:14:12.490Z,0
2017-07-26T02:15:12.784Z,0
2017-07-26T02:16:12.173Z,0
2017-07-26T02:17:12.956Z,0
2017-07-26T02:18:12.777Z,0
2017-07-26T02:19:12.764Z,0
2017-07-26T02:20:12.548Z,0
2017-07-26T02:21:12.756Z,0
2017-07-26T02:22:12.698Z,0
2017-07-26T02:23:12.141Z,0
2017-07-26T02:24:12.843Z,0
2017-07-26T02:25:12.739Z,0
2017-07-26T02:26:12.432Z,0
2017-07-26T02:27:12.856Z,0
2017-07-26T02:28:12.727Z,0
2017-07-26T02:29:12.747Z,0
2017-07-26T02:30:12.727Z,0
2017-07-26T02:31:12.514Z,0
2017-07-26T02:32:12.710Z,0
2017-07-26T02:33:12.705Z,0
2017-07-26T02:34:12.547Z,0
2017-07-26T02:35:12.716Z,0
2017-07-26T02:36:12.697Z,0
2017-07-26T02:37:12.785Z,0
2017-07-26T02:38:12.728Z,0
2017-07-26T02:39:12.682Z,0
2017-07-26T02:40:12.069Z,0
2017-07-26T02:41:12.362Z,0
2017-07-26T02:42:12.365Z,0
2017-07-26T02:43:12.358Z,0
2017-07-26T02:44:12.809Z,0
2017-07-26T02:45:12.661Z,0
2017-07-26T02:46:12.652Z,0
2017-07-26T02:47:12.760Z,0
2017-07-26T02:48:12.753Z,0
2017-07-26T02:49:12.329Z,0
2017-07-26T02:50:12.781Z,0
2017-07-26T02:51:12.634Z,0
2017-07-26T02:52:12.617Z,0
2017-07-26T02:53:12.314Z,0
2017-07-26T02:54:12.317Z,0
2017-07-26T02:55:12.706Z,0
2017-07-26T02:56:12.612Z,0
2017-07-26T02:57:12.293Z,0
2017-07-26T02:58:12.389Z,0
2017-07-26T02:59:12.294Z,0
2017-07-26T03:00:12.590Z,0
2017-07-26T03:01:12.682Z,0
2017-07-26T03:02:12.584Z,0
2017-07-26T03:03:12.512Z,0
2017-07-26T03:04:11.957Z,0
2017-07-26T03:05:12.266Z,0
2017-07-26T03:06:12.555Z,0
2017-07-26T03:07:12.248Z,0
2017-07-26T03:08:12.248Z,0
2017-07-26T03:09:12.547Z,0
2017-07-26T03:10:12.537Z,0
2017-07-26T03:11:12.229Z,0
2017-07-26T03:12:12.225Z,0
2017-07-26T03:13:12.528Z,0
2017-07-26T03:14:12.214Z,0
2017-07-26T03:15:12.537Z,0
2017-07-26T03:16:12.522Z,0
2017-07-26T03:17:12.510Z,0
2017-07-26T03:18:12.206Z,0
2017-07-26T03:19:12.501Z,0
2017-07-26T03:20:12.190Z,0
2017-07-26T03:21:12.485Z,0
2017-07-26T03:22:12.490Z,0
2017-07-26T03:23:12.495Z,0
2017-07-26T03:24:12.173Z,0
2017-07-26T03:25:12.471Z,0
2017-07-26T03:26:12.168Z,0
2017-07-26T03:27:12.465Z,0
2017-07-26T03:28:12.564Z,0
2017-07-26T03:29:12.560Z,0
2017-07-26T03:30:12.163Z,0
2017-07-26T03:31:12.454Z,0
2017-07-26T03:32:12.444Z,0
2017-07-26T03:33:12.584Z,0
2017-07-26T03:34:12.540Z,0
2017-07-26T03:35:12.430Z,0
2017-07-26T03:36:12.529Z,0
2017-07-26T03:37:12.427Z,0
2017-07-26T03:38:12.422Z,0
2017-07-26T03:39:12.109Z,0
2017-07-26T03:40:12.129Z,0
2017-07-26T03:41:12.097Z,0
2017-07-26T03:42:12.429Z,0
2017-07-26T03:43:12.392Z,0
2017-07-26T03:44:12.237Z,0
2017-07-26T03:45:12.488Z,0
2017-07-26T03:46:12.385Z,0
2017-07-26T03:47:12.380Z,0
2017-07-26T03:48:11.759Z,0
2017-07-26T03:49:12.368Z,0
2017-07-26T03:50:12.159Z,0
2017-07-26T03:51:12.355Z,0
2017-07-26T03:52:12.356Z,0
2017-07-26T03:53:12.356Z,0
2017-07-26T03:54:12.040Z,0
2017-07-26T03:55:12.495Z,0
2017-07-26T03:56:12.334Z,0
2017-07-26T03:57:12.339Z,0
2017-07-26T03:58:12.322Z,0
2017-07-26T03:59:12.320Z,0
2017-07-26T04:00:11.813Z,0
2017-07-26T04:01:12.308Z,0
2017-07-26T04:02:11.598Z,0
2017-07-26T04:03:11.701Z,0
2017-07-26T04:04:11.997Z,0
2017-07-26T04:05:12.400Z,0
2017-07-26T04:06:11.680Z,0
2017-07-26T04:07:12.078Z,0
2017-07-26T04:08:12.283Z,0
2017-07-26T04:09:12.278Z,0
2017-07-26T04:10:11.665Z,0
2017-07-26T04:11:12.270Z,0
2017-07-26T04:12:12.074Z,0
2017-07-26T04:13:12.272Z,0
2017-07-26T04:14:12.252Z,0
2017-07-26T04:15:12.248Z,0
2017-07-26T04:16:12.093Z,0
2017-07-26T04:17:12.242Z,0
2017-07-26T04:18:11.928Z,0
2017-07-26T04:19:12.231Z,0
2017-07-26T04:20:11.928Z,0
2017-07-26T04:21:11.917Z,0
2017-07-26T04:22:12.226Z,0
2017-07-26T04:23:12.222Z,0
2017-07-26T04:24:11.906Z,0
2017-07-26T04:25:12.209Z,0
2017-07-26T04:26:12.151Z,0
2017-07-26T04:27:12.196Z,0
2017-07-26T04:28:12.289Z,0
2017-07-26T04:29:12.308Z,0
2017-07-26T04:30:12.182Z,0
2017-07-26T04:31:12.184Z,0
2017-07-26T04:32:12.191Z,0
2017-07-26T04:33:12.168Z,0
2017-07-26T04:34:11.864Z,0
2017-07-26T04:35:12.162Z,0
2017-07-26T04:36:12.260Z,0
2017-07-26T04:37:12.282Z,0
2017-07-26T04:38:12.143Z,0
2017-07-26T04:39:12.151Z,0
2017-07-26T04:40:11.843Z,0
2017-07-26T04:41:12.132Z,0
2017-07-26T04:42:12.126Z,0
2017-07-26T04:43:11.827Z,0
2017-07-26T04:44:11.810Z,0
2017-07-26T04:45:12.112Z,0
2017-07-26T04:46:11.806Z,0
2017-07-26T04:47:12.108Z,0
2017-07-26T04:48:12.107Z,0
2017-07-26T04:49:12.095Z,0
2017-07-26T04:50:11.886Z,0
2017-07-26T04:51:12.128Z,0
2017-07-26T04:52:12.080Z,0
2017-07-26T04:53:11.776Z,0
2017-07-26T04:54:12.084Z,0
2017-07-26T04:55:11.767Z,0
2017-07-26T04:56:12.067Z,0
2017-07-26T04:57:12.061Z,0
2017-07-26T04:58:11.753Z,0
2017-07-26T04:59:12.251Z,0
2017-07-26T05:00:12.055Z,0
2017-07-26T05:01:12.043Z,0
2017-07-26T05:02:11.455Z,0
2017-07-26T05:03:12.031Z,0
2017-07-26T05:04:12.033Z,0
2017-07-26T05:05:11.843Z,0
2017-07-26T05:06:12.027Z,0
2017-07-26T05:07:11.707Z,0
2017-07-26T05:08:12.010Z,0
2017-07-26T05:09:12.156Z,0
2017-07-26T05:10:11.699Z,0
2017-07-26T05:11:12.009Z,0
2017-07-26T05:12:11.990Z,0
2017-07-26T05:13:11.990Z,0
2017-07-26T05:14:12.079Z,0
2017-07-26T05:15:12.085Z,0
2017-07-26T05:16:11.771Z,5
2017-07-26T05:17:11.372Z,5
2017-07-26T05:18:11.914Z,5
2017-07-26T05:19:11.971Z,5
2017-07-26T05:20:11.958Z,5
2017-07-26T05:21:11.809Z,5
2017-07-26T05:22:11.949Z,5
2017-07-26T05:23:12.043Z,5
2017-07-26T05:24:11.636Z,5
2017-07-26T05:25:11.942Z,5
2017-07-26T05:26:11.929Z,5
2017-07-26T05:27:11.924Z,5
2017-07-26T05:28:11.934Z,5
2017-07-26T05:29:12.074Z,5
2017-07-26T05:30:11.914Z,5
2017-07-26T05:31:11.914Z,5
2017-07-26T05:32:12.062Z,5
2017-07-26T05:33:11.898Z,5
2017-07-26T05:34:11.697Z,5
2017-07-26T05:35:11.901Z,5
2017-07-26T05:36:11.885Z,5
2017-07-26T05:37:11.884Z,5
2017-07-26T05:38:11.574Z,5
2017-07-26T05:39:11.569Z,5
2017-07-26T05:40:11.572Z,5
2017-07-26T05:41:11.973Z,5
2017-07-26T05:42:11.959Z,5
2017-07-26T05:43:11.870Z,5
2017-07-26T05:44:11.696Z,5
2017-07-26T05:45:11.855Z,5
2017-07-26T05:46:11.840Z,5
2017-07-26T05:47:11.839Z,5
2017-07-26T05:48:11.529Z,5
2017-07-26T05:49:11.829Z,10
2017-07-26T05:50:11.533Z,5
2017-07-26T05:51:11.819Z,5
2017-07-26T05:52:11.816Z,5
2017-07-26T05:53:11.811Z,5
2017-07-26T05:54:11.907Z,5
2017-07-26T05:55:12.052Z,5
2017-07-26T05:56:11.805Z,5
2017-07-26T05:57:11.795Z,5
2017-07-26T05:58:11.790Z,0
2017-07-26T05:59:11.787Z,5
2017-07-26T06:00:11.694Z,5
2017-07-26T06:01:11.783Z,5
2017-07-26T06:02:11.472Z,5
2017-07-26T06:03:11.478Z,5
2017-07-26T06:04:11.774Z,5
2017-07-26T06:05:11.908Z,5
2017-07-26T06:06:11.917Z,5
2017-07-26T06:07:11.757Z,10
2017-07-26T06:08:11.544Z,10
2017-07-26T06:09:11.141Z,10
2017-07-26T06:10:11.558Z,10
2017-07-26T06:11:11.432Z,10
2017-07-26T06:12:11.827Z,10
2017-07-26T06:13:11.425Z,10
2017-07-26T06:14:11.417Z,10
2017-07-26T06:15:11.717Z,10
2017-07-26T06:16:11.412Z,15
2017-07-26T06:17:11.723Z,15
2017-07-26T06:18:11.720Z,15
2017-07-26T06:19:11.807Z,10
2017-07-26T06:20:11.692Z,10
2017-07-26T06:21:11.395Z,10
2017-07-26T06:22:11.379Z,10
2017-07-26T06:23:11.686Z,15
2017-07-26T06:24:11.784Z,10
2017-07-26T06:25:11.688Z,10
2017-07-26T06:26:11.674Z,10
2017-07-26T06:27:11.359Z,15
2017-07-26T06:28:11.508Z,20
2017-07-26T06:29:11.657Z,15
2017-07-26T06:30:11.357Z,15
2017-07-26T06:31:11.760Z,15
2017-07-26T06:32:11.643Z,15
2017-07-26T06:33:11.740Z,20
2017-07-26T06:34:11.345Z,20
2017-07-26T06:35:11.729Z,20
2017-07-26T06:36:11.012Z,15
2017-07-26T06:37:11.316Z,15
2017-07-26T06:38:11.612Z,15
2017-07-26T06:39:11.614Z,15
2017-07-26T06:40:11.831Z,15
2017-07-26T06:41:11.599Z,20
2017-07-26T06:42:11.608Z,20
2017-07-26T06:43:10.980Z,20
2017-07-26T06:44:11.280Z,20
2017-07-26T06:45:11.275Z,20
2017-07-26T06:46:11.288Z,15
2017-07-26T06:47:11.266Z,15
2017-07-26T06:48:11.570Z,15
2017-07-26T06:49:11.560Z,15
2017-07-26T06:50:11.564Z,15
2017-07-26T06:51:11.758Z,10
2017-07-26T06:52:11.661Z,10
2017-07-26T06:53:11.544Z,15
2017-07-26T06:54:11.641Z,15
2017-07-26T06:55:11.542Z,10
2017-07-26T06:56:11.536Z,15
2017-07-26T06:57:11.228Z,15
2017-07-26T06:58:11.532Z,15
2017-07-26T06:59:11.517Z,15
2017-07-26T07:00:11.517Z,15
2017-07-26T07:01:11.509Z,15
2017-07-26T07:02:11.300Z,15
2017-07-26T07:03:11.610Z,15
2017-07-26T07:04:11.600Z,15
2017-07-26T07:05:11.498Z,15
2017-07-26T07:06:11.186Z,15
2017-07-26T07:07:11.488Z,15
2017-07-26T07:08:11.480Z,15
2017-07-26T07:09:11.486Z,15
2017-07-26T07:10:11.471Z,10
2017-07-26T07:11:11.164Z,10
2017-07-26T07:12:11.154Z,10
2017-07-26T07:13:11.146Z,10
2017-07-26T07:14:11.165Z,5
2017-07-26T07:15:11.145Z,5
2017-07-26T07:16:11.143Z,5
2017-07-26T07:17:11.434Z,5
2017-07-26T07:18:11.140Z,5
2017-07-26T07:19:10.816Z,5
2017-07-26T07:20:11.012Z,5
2017-07-26T07:21:11.427Z,5
2017-07-26T07:22:11.421Z,5
2017-07-26T07:23:11.407Z,5
2017-07-26T07:24:11.509Z,5
2017-07-26T07:25:10.792Z,5
2017-07-26T07:26:11.395Z,5
2017-07-26T07:27:11.508Z,5
2017-07-26T07:28:11.542Z,5
2017-07-26T07:29:11.386Z,10
2017-07-26T07:30:11.381Z,10
2017-07-26T07:31:11.378Z,10
2017-07-26T07:32:11.369Z,10
2017-07-26T07:33:11.509Z,10
2017-07-26T07:34:11.462Z,10
2017-07-26T07:35:11.472Z,10
2017-07-26T07:36:11.352Z,10
2017-07-26T07:37:11.041Z,10
2017-07-26T07:38:11.497Z,10
2017-07-26T07:39:11.030Z,10
2017-07-26T07:40:11.031Z,10
2017-07-26T07:41:11.028Z,10
2017-07-26T07:42:11.327Z,10
2017-07-26T07:43:11.321Z,10
2017-07-26T07:44:11.618Z,10
2017-07-26T07:45:11.007Z,15
2017-07-26T07:46:11.010Z,15
2017-07-26T07:47:11.304Z,20
2017-07-26T07:48:10.996Z,20
2017-07-26T07:49:10.680Z,15
2017-07-26T07:50:11.320Z,15
2017-07-26T07:51:10.994Z,15
2017-07-26T07:52:10.974Z,15
2017-07-26T07:53:10.971Z,15
2017-07-26T07:54:10.964Z,15
2017-07-26T07:55:10.976Z,15
2017-07-26T07:56:11.263Z,15
2017-07-26T07:57:10.952Z,15
2017-07-26T07:58:10.944Z,20
2017-07-26T07:59:10.973Z,20
2017-07-26T08:00:10.941Z,20
2017-07-26T08:01:11.356Z,20
2017-07-26T08:02:11.540Z,20
2017-07-26T08:03:11.236Z,20
2017-07-26T08:04:10.923Z,25
2017-07-26T08:05:10.918Z,20
2017-07-26T08:06:11.013Z,25
2017-07-26T08:07:11.220Z,25
2017-07-26T08:08:11.102Z,20
2017-07-26T08:09:11.211Z,25
2017-07-26T08:10:10.892Z,25
2017-07-26T08:11:11.186Z,25
2017-07-26T08:12:11.191Z,25
2017-07-26T08:13:11.183Z,25
2017-07-26T08:14:11.176Z,25
2017-07-26T08:15:11.171Z,25
2017-07-26T08:16:11.174Z,25
2017-07-26T08:17:11.261Z,30
2017-07-26T08:18:11.158Z,30
2017-07-26T08:19:11.315Z,35
2017-07-26T08:20:11.277Z,35
2017-07-26T08:21:11.143Z,40
2017-07-26T08:22:11.148Z,40
2017-07-26T08:23:11.139Z,40
2017-07-26T08:24:11.288Z,35
2017-07-26T08:25:11.135Z,35
2017-07-26T08:26:10.819Z,35
2017-07-26T08:27:11.127Z,45
2017-07-26T08:28:10.812Z,45
2017-07-26T08:29:10.799Z,50
2017-07-26T08:30:11.223Z,55
2017-07-26T08:31:11.114Z,55
2017-07-26T08:32:11.195Z,55
2017-07-26T08:33:11.094Z,55
2017-07-26T08:34:11.090Z,55
2017-07-26T08:35:11.086Z,55
2017-07-26T08:36:11.079Z,60
2017-07-26T08:37:11.083Z,60
2017-07-26T08:38:10.665Z,65
2017-07-26T08:39:10.763Z,65
2017-07-26T08:40:10.456Z,65
2017-07-26T08:41:11.155Z,70
2017-07-26T08:42:10.745Z,65
2017-07-26T08:43:11.050Z,65
2017-07-26T08:44:11.054Z,65
2017-07-26T08:45:10.741Z,65
2017-07-26T08:46:10.522Z,65
2017-07-26T08:47:11.026Z,65
2017-07-26T08:48:10.412Z,60
2017-07-26T08:49:10.741Z,60
2017-07-26T08:50:10.408Z,60
2017-07-26T08:51:10.406Z,55
2017-07-26T08:52:10.700Z,55
2017-07-26T08:53:10.701Z,55
2017-07-26T08:54:10.994Z,45
2017-07-26T08:55:11.005Z,40
2017-07-26T08:56:10.532Z,35
2017-07-26T08:57:10.681Z,30
2017-07-26T08:58:10.374Z,30
2017-07-26T08:59:10.678Z,40
2017-07-26T09:00:10.973Z,40
2017-07-26T09:01:11.121Z,35
2017-07-26T09:02:10.657Z,45
2017-07-26T09:03:10.969Z,60
2017-07-26T09:04:10.959Z,60
2017-07-26T09:05:10.954Z,55
2017-07-26T09:06:10.654Z,60
2017-07-26T09:07:10.346Z,55
2017-07-26T09:08:10.734Z,50
2017-07-26T09:09:10.936Z,60
2017-07-26T09:10:11.033Z,60
2017-07-26T09:11:10.924Z,65
2017-07-26T09:12:10.309Z,70
2017-07-26T09:13:10.617Z,75
2017-07-26T09:14:10.603Z,70
2017-07-26T09:15:10.608Z,70
2017-07-26T09:16:10.599Z,85
2017-07-26T09:17:10.897Z,100
2017-07-26T09:18:10.895Z,100
2017-07-26T09:19:10.281Z,90
2017-07-26T09:20:10.886Z,90
2017-07-26T09:21:10.909Z,90
2017-07-26T09:22:10.981Z,90
2017-07-26T09:23:10.576Z,95
2017-07-26T09:24:10.893Z,100
2017-07-26T09:25:10.870Z,100
2017-07-26T09:26:10.863Z,100
2017-07-26T09:27:10.864Z,95
2017-07-26T09:28:10.850Z,95
2017-07-26T09:29:10.851Z,100
2017-07-26T09:30:10.868Z,75
2017-07-26T09:31:10.838Z,85
2017-07-26T09:32:10.225Z,80
2017-07-26T09:33:10.929Z,80
2017-07-26T09:34:10.832Z,85
2017-07-26T09:35:10.853Z,80
2017-07-26T09:36:10.520Z,70
2017-07-26T09:37:10.840Z,70
2017-07-26T09:38:10.201Z,70
2017-07-26T09:39:10.804Z,75
2017-07-26T09:40:25.506Z,65
2017-07-26T09:41:10.820Z,75
2017-07-26T09:42:10.825Z,60
2017-07-26T09:43:10.177Z,50
2017-07-26T09:44:10.633Z,50
2017-07-26T09:45:10.781Z,60
2017-07-26T09:46:10.788Z,55
2017-07-26T09:47:10.779Z,55
2017-07-26T09:48:10.467Z,55
2017-07-26T09:49:10.310Z,55
2017-07-26T09:50:10.871Z,60
2017-07-26T09:51:10.762Z,60
2017-07-26T09:52:10.750Z,50
2017-07-26T09:53:10.449Z,50
2017-07-26T09:54:10.896Z,50
2017-07-26T09:55:10.743Z,40
2017-07-26T09:56:09.814Z,45
2017-07-26T09:57:10.525Z,45
2017-07-26T09:58:10.730Z,50
2017-07-26T09:59:10.725Z,45
2017-07-26T10:00:10.729Z,50
2017-07-26T10:01:10.721Z,50
2017-07-26T10:02:10.719Z,45
2017-07-26T10:03:10.824Z,55
2017-07-26T10:04:10.559Z,50
2017-07-26T10:05:10.410Z,40
2017-07-26T10:06:10.689Z,35
2017-07-26T10:07:10.385Z,35
2017-07-26T10:08:10.479Z,35
2017-07-26T10:09:10.377Z,30
2017-07-26T10:10:10.374Z,35
2017-07-26T10:11:10.672Z,30
2017-07-26T10:12:10.691Z,30
2017-07-26T10:13:10.664Z,35
2017-07-26T10:14:10.670Z,35
2017-07-26T10:15:10.049Z,35
2017-07-26T10:16:10.655Z,40
2017-07-26T10:17:10.342Z,40
2017-07-26T10:18:10.644Z,40
2017-07-26T10:19:10.646Z,40
2017-07-26T10:20:10.435Z,35
2017-07-26T10:21:10.627Z,35
2017-07-26T10:22:10.117Z,40
2017-07-26T10:23:10.318Z,35
2017-07-26T10:24:10.313Z,45
2017-07-26T10:25:10.007Z,40
2017-07-26T10:26:09.995Z,40
2017-07-26T10:27:10.605Z,40
2017-07-26T10:28:10.602Z,45
2017-07-26T10:29:10.290Z,50
2017-07-26T10:30:09.897Z,50
2017-07-26T10:31:10.383Z,50
2017-07-26T10:32:10.274Z,65
2017-07-26T10:33:09.967Z,75
2017-07-26T10:34:09.966Z,60
2017-07-26T10:35:10.575Z,70
2017-07-26T10:36:10.575Z,75
2017-07-26T10:37:09.948Z,80
2017-07-26T10:38:09.943Z,80
2017-07-26T10:39:10.560Z,65
2017-07-26T10:40:09.934Z,60
2017-07-26T10:41:10.650Z,55
2017-07-26T10:42:10.540Z,45
2017-07-26T10:43:10.225Z,55
2017-07-26T10:44:10.633Z,55
2017-07-26T10:45:10.535Z,60
2017-07-26T10:46:10.624Z,60
2017-07-26T10:47:09.917Z,55
2017-07-26T10:48:10.205Z,55
2017-07-26T10:49:10.206Z,55
2017-07-26T10:50:10.202Z,60
2017-07-26T10:51:10.510Z,80
2017-07-26T10:52:09.591Z,85
2017-07-26T10:53:10.188Z,65
2017-07-26T10:54:09.880Z,55
2017-07-26T10:55:10.182Z,50
2017-07-26T10:56:10.189Z,40
2017-07-26T10:57:10.171Z,45
2017-07-26T10:58:10.479Z,55
2017-07-26T10:59:10.171Z,55
2017-07-26T11:00:10.571Z,45
2017-07-26T11:01:10.155Z,55
2017-07-26T11:02:10.151Z,60
2017-07-26T11:03:09.942Z,55
2017-07-26T11:04:09.835Z,40
2017-07-26T11:05:10.147Z,40
2017-07-26T11:06:10.230Z,35
2017-07-26T11:07:10.432Z,35
2017-07-26T11:08:10.430Z,30
2017-07-26T11:09:10.427Z,35
2017-07-26T11:10:10.443Z,40
2017-07-26T11:11:10.113Z,45
2017-07-26T11:12:10.143Z,50
2017-07-26T11:13:10.416Z,45
2017-07-26T11:14:10.505Z,50
2017-07-26T11:15:10.503Z,55
2017-07-26T11:16:10.095Z,55
2017-07-26T11:17:10.096Z,50
2017-07-26T11:18:10.079Z,40
2017-07-26T11:19:10.078Z,30
2017-07-26T11:20:10.186Z,35
2017-07-26T11:21:09.762Z,30
2017-07-26T11:22:10.375Z,25
2017-07-26T11:23:10.060Z,25
2017-07-26T11:24:09.898Z,20
2017-07-26T11:25:10.362Z,20
2017-07-26T11:26:10.052Z,15
2017-07-26T11:27:10.041Z,20
2017-07-26T11:28:10.340Z,25
2017-07-26T11:29:10.059Z,20
2017-07-26T11:30:10.337Z,20
2017-07-26T11:31:10.357Z,20
2017-07-26T11:32:10.326Z,20
2017-07-26T11:33:10.426Z,25
2017-07-26T11:34:10.022Z,20
2017-07-26T11:35:10.417Z,20
2017-07-26T11:36:10.101Z,15
2017-07-26T11:37:10.299Z,15
2017-07-26T11:38:10.006Z,15
2017-07-26T11:39:10.445Z,15
2017-07-26T11:40:09.989Z,15
2017-07-26T11:41:10.087Z,15
2017-07-26T11:42:10.296Z,15
2017-07-26T11:43:10.486Z,20
2017-07-26T11:44:09.966Z,20
2017-07-26T11:45:10.462Z,20
2017-07-26T11:46:09.973Z,15
2017-07-26T11:47:10.264Z,15
2017-07-26T11:48:09.649Z,20
2017-07-26T11:49:09.946Z,20
2017-07-26T11:50:10.247Z,20
2017-07-26T11:51:10.346Z,20
2017-07-26T11:52:10.243Z,15
2017-07-26T11:53:10.238Z,20
2017-07-26T11:54:10.233Z,25
2017-07-26T11:55:10.226Z,20
2017-07-26T11:56:10.323Z,15
2017-07-26T11:57:10.212Z,15
2017-07-26T11:58:10.310Z,10
2017-07-26T11:59:09.904Z,10
2017-07-26T12:00:10.236Z,10
2017-07-26T12:01:10.203Z,15
2017-07-26T12:02:10.305Z,15
2017-07-26T12:03:10.188Z,20
2017-07-26T12:04:10.192Z,25
2017-07-26T12:05:10.203Z,40
2017-07-26T12:06:09.995Z,45
2017-07-26T12:07:10.173Z,50
2017-07-26T12:08:10.178Z,60
2017-07-26T12:09:09.549Z,55
2017-07-26T12:10:09.545Z,45
2017-07-26T12:11:10.254Z,40
2017-07-26T12:12:09.255Z,30
2017-07-26T12:13:10.142Z,25
2017-07-26T12:14:10.136Z,20
2017-07-26T12:15:10.137Z,15
2017-07-26T12:16:10.140Z,15
2017-07-26T12:17:10.129Z,15
2017-07-26T12:18:10.122Z,15
2017-07-26T12:19:10.124Z,20
2017-07-26T12:20:10.112Z,25
2017-07-26T12:21:09.836Z,40
2017-07-26T12:22:10.120Z,40
2017-07-26T12:23:09.791Z,35
2017-07-26T12:24:09.484Z,30
2017-07-26T12:25:09.928Z,30
2017-07-26T12:26:10.089Z,35
2017-07-26T12:27:10.085Z,35
2017-07-26T12:28:10.084Z,35
2017-07-26T12:29:10.084Z,30
2017-07-26T12:30:09.456Z,35
2017-07-26T12:31:10.090Z,30
2017-07-26T12:32:10.068Z,35
2017-07-26T12:33:10.058Z,30
2017-07-26T12:34:09.748Z,35
2017-07-26T12:35:10.076Z,45
2017-07-26T12:36:10.042Z,45
2017-07-26T12:37:10.037Z,60
2017-07-26T12:38:10.141Z,65
2017-07-26T12:39:10.032Z,60
2017-07-26T12:40:09.733Z,65
2017-07-26T12:41:09.712Z,65
2017-07-26T12:42:09.715Z,60
2017-07-26T12:43:10.006Z,50
2017-07-26T12:44:10.006Z,50
2017-07-26T12:45:09.723Z,50
2017-07-26T12:46:09.852Z,50
2017-07-26T12:47:09.997Z,45
2017-07-26T12:48:09.993Z,45
2017-07-26T12:49:09.984Z,45
2017-07-26T12:50:09.980Z,45
2017-07-26T12:51:09.672Z,55
2017-07-26T12:52:09.979Z,55
2017-07-26T12:53:09.679Z,45
2017-07-26T12:54:09.961Z,45
2017-07-26T12:55:09.652Z,50
2017-07-26T12:56:09.652Z,55
2017-07-26T12:57:09.640Z,60
2017-07-26T12:58:09.945Z,50
2017-07-26T12:59:09.638Z,40
2017-07-26T13:00:09.329Z,40
2017-07-26T13:01:09.935Z,40
2017-07-26T13:02:09.623Z,40
2017-07-26T13:03:09.924Z,60
2017-07-26T13:04:09.615Z,65
2017-07-26T13:05:09.621Z,60
2017-07-26T13:06:09.909Z,60
2017-07-26T13:07:09.908Z,60
2017-07-26T13:08:09.598Z,50
2017-07-26T13:09:09.905Z,35
2017-07-26T13:10:09.692Z,30
2017-07-26T13:11:09.598Z,25
2017-07-26T13:12:09.882Z,20
2017-07-26T13:13:09.672Z,15
2017-07-26T13:14:10.028Z,15
2017-07-26T13:15:09.570Z,20
2017-07-26T13:16:09.873Z,30
2017-07-26T13:17:09.554Z,40
2017-07-26T13:18:09.860Z,30
2017-07-26T13:19:09.652Z,45
2017-07-26T13:20:09.848Z,40
2017-07-26T13:21:09.848Z,35
2017-07-26T13:22:09.250Z,40
2017-07-26T13:23:09.838Z,55
2017-07-26T13:24:09.621Z,55
2017-07-26T13:25:09.821Z,45
2017-07-26T13:26:09.819Z,40
2017-07-26T13:27:09.620Z,55
2017-07-26T13:28:09.823Z,40
2017-07-26T13:29:09.537Z,35
2017-07-26T13:30:09.512Z,55
2017-07-26T13:31:09.492Z,80
2017-07-26T13:32:09.609Z,90
2017-07-26T13:33:09.790Z,100
2017-07-26T13:34:09.488Z,100
2017-07-26T13:35:09.788Z,85
2017-07-26T13:36:09.175Z,70
2017-07-26T13:37:09.470Z,55
2017-07-26T13:38:09.567Z,60
2017-07-26T13:39:09.766Z,55
2017-07-26T13:40:09.464Z,45
2017-07-26T13:41:09.778Z,80
2017-07-26T13:42:09.855Z,110
2017-07-26T13:43:09.750Z,115
2017-07-26T13:44:09.746Z,115
2017-07-26T13:45:09.464Z,115
2017-07-26T13:46:09.535Z,120
2017-07-26T13:47:09.732Z,110
2017-07-26T13:48:09.424Z,105
2017-07-26T13:49:09.718Z,110
2017-07-26T13:50:09.413Z,110
2017-07-26T13:51:09.718Z,110
2017-07-26T13:52:09.710Z,110
2017-07-26T13:53:09.410Z,110
2017-07-26T13:54:09.701Z,110
2017-07-26T13:55:09.716Z,100
2017-07-26T13:56:09.791Z,60
2017-07-26T13:57:09.711Z,50
2017-07-26T13:58:09.798Z,30
2017-07-26T13:59:09.685Z,20
2017-07-26T14:00:09.690Z,20
2017-07-26T14:01:09.675Z,45
2017-07-26T14:02:09.364Z,60
2017-07-26T14:03:09.368Z,70
2017-07-26T14:04:09.046Z,85
2017-07-26T14:05:09.658Z,85
2017-07-26T14:06:09.653Z,80
2017-07-26T14:07:09.343Z,70
2017-07-26T14:08:09.343Z,65
2017-07-26T14:09:09.336Z,55
2017-07-26T14:10:09.345Z,55
2017-07-26T14:11:09.742Z,60
2017-07-26T14:12:09.631Z,70
2017-07-26T14:13:09.320Z,80
2017-07-26T14:14:09.723Z,85
2017-07-26T14:15:09.725Z,80
2017-07-26T14:16:09.613Z,70
2017-07-26T14:17:09.615Z,75
2017-07-26T14:18:09.600Z,75
2017-07-26T14:19:09.290Z,75
2017-07-26T14:20:09.611Z,75
2017-07-26T14:21:09.293Z,75
2017-07-26T14:22:09.289Z,75
2017-07-26T14:23:09.589Z,70
2017-07-26T14:24:09.585Z,70
2017-07-26T14:25:09.386Z,75
2017-07-26T14:26:09.574Z,80
2017-07-26T14:27:09.571Z,80
2017-07-26T14:28:09.051Z,85